createdAt,value
2022-10-20T00:01:31.578Z,98727.88
2022-10-20T00:03:32.855Z,98729.59
2022-10-20T00:05:34.199Z,98731.34
2022-10-20T00:07:35.478Z,98723.69
2022-10-20T00:09:36.966Z,98717.63
2022-10-20T00:11:38.301Z,98728.69
2022-10-20T00:13:39.629Z,98728.72
2022-10-20T00:15:40.957Z,98727.03
2022-10-20T00:17:42.219Z,98727.06
2022-10-20T00:19:43.496Z,98725.38
2022-10-20T00:21:44.832Z,98729.59
2022-10-20T00:23:46.123Z,98732.16
2022-10-20T00:25:47.423Z,98729.69
2022-10-20T00:27:48.754Z,98725.38
2022-10-20T00:29:50.011Z,98725.38
2022-10-20T00:31:51.311Z,98725.38
2022-10-20T00:33:52.634Z,98738.19
2022-10-20T00:35:53.900Z,98727.13
2022-10-20T00:37:55.167Z,98729.69
2022-10-20T00:39:56.518Z,98725.47
2022-10-20T00:41:57.843Z,98716.09
2022-10-20T00:43:59.114Z,98714.38
2022-10-20T00:46:00.414Z,98722.00
2022-10-20T00:48:01.693Z,98726.28
2022-10-20T00:50:02.986Z,98715.22
2022-10-20T00:52:04.294Z,98710.13
2022-10-20T00:54:05.651Z,98716.06
2022-10-20T00:56:06.940Z,98708.41
2022-10-20T00:58:08.204Z,98713.56
2022-10-20T01:00:09.511Z,98711.06
2022-10-20T01:02:10.886Z,98705.06
2022-10-20T01:04:12.146Z,98697.41
2022-10-20T01:06:13.523Z,98702.53
2022-10-20T01:08:14.861Z,98701.63
2022-10-20T01:10:16.135Z,98699.97
2022-10-20T01:12:17.464Z,98697.41
2022-10-20T01:14:18.753Z,98700.00
2022-10-20T01:16:20.063Z,98696.63
2022-10-20T01:18:21.335Z,98703.47
2022-10-20T01:20:22.680Z,98694.13
2022-10-20T01:22:23.964Z,98703.53
2022-10-20T01:24:25.273Z,98693.34
2022-10-20T01:26:26.609Z,98688.28
2022-10-20T01:28:27.878Z,98684.91
2022-10-20T01:30:30.595Z,98682.34
2022-10-20T01:32:31.855Z,98681.50
2022-10-20T01:34:33.115Z,98684.94
2022-10-20T01:36:34.437Z,98679.84
2022-10-20T01:38:35.701Z,98676.41
2022-10-20T01:40:36.979Z,98702.00
2022-10-20T01:42:38.282Z,98680.75
2022-10-20T01:44:39.578Z,98682.50
2022-10-20T01:46:40.853Z,98681.59
2022-10-20T01:48:42.171Z,98686.72
2022-10-20T01:50:43.499Z,98676.53
2022-10-20T01:52:44.806Z,98608.94
2022-10-20T01:54:46.067Z,98677.34
2022-10-20T01:56:47.363Z,98671.38
2022-10-20T01:58:48.638Z,98667.94
2022-10-20T02:00:49.936Z,98663.63
2022-10-20T02:02:51.274Z,98661.88
2022-10-20T02:04:52.578Z,98654.09
2022-10-20T02:06:53.870Z,98658.28
2022-10-20T02:08:55.218Z,98643.78
2022-10-20T02:10:56.591Z,98639.50
2022-10-20T02:12:57.923Z,98643.75
2022-10-20T02:14:59.212Z,98642.84
2022-10-20T02:17:00.602Z,98638.59
2022-10-20T02:19:01.989Z,98624.06
2022-10-20T02:21:03.446Z,98630.84
2022-10-20T02:23:04.730Z,98623.16
2022-10-20T02:25:06.001Z,98617.19
2022-10-20T02:27:08.223Z,98622.31
2022-10-20T02:29:09.518Z,98615.50
2022-10-20T02:31:10.827Z,98613.78
2022-10-20T02:33:12.152Z,98606.16
2022-10-20T02:35:13.480Z,98611.28
2022-10-20T02:37:14.807Z,98611.28
2022-10-20T02:39:16.139Z,98611.28
2022-10-20T02:41:17.414Z,98601.91
2022-10-20T02:43:18.691Z,98607.09
2022-10-20T02:45:23.030Z,98603.69
2022-10-20T02:47:24.402Z,98608.03
2022-10-20T02:49:27.360Z,98608.88
2022-10-20T02:51:28.634Z,98610.63
2022-10-20T02:53:30.684Z,98610.69
2022-10-20T02:55:32.075Z,98608.19
2022-10-20T02:57:33.564Z,98607.38
2022-10-20T02:59:35.018Z,98602.28
2022-10-20T03:01:36.313Z,98597.22
2022-10-20T03:03:37.625Z,98599.81
2022-10-20T03:05:38.968Z,98594.72
2022-10-20T03:07:40.318Z,98593.88
2022-10-20T03:09:41.802Z,98593.03
2022-10-20T03:11:43.690Z,98589.66
2022-10-20T03:13:45.107Z,98596.53
2022-10-20T03:15:46.427Z,98582.81
2022-10-20T03:17:47.715Z,98583.75
2022-10-20T03:19:48.989Z,98582.06
2022-10-20T03:21:50.330Z,98575.25
2022-10-20T03:23:51.656Z,98576.06
2022-10-20T03:25:52.947Z,98575.19
2022-10-20T03:27:54.229Z,98577.69
2022-10-20T03:29:55.577Z,98571.69
2022-10-20T03:31:56.863Z,98569.06
2022-10-20T03:33:58.175Z,98570.63
2022-10-20T03:35:59.448Z,98563.69
2022-10-20T03:38:00.731Z,98567.00
2022-10-20T03:40:02.047Z,98556.72
2022-10-20T03:42:03.351Z,98568.59
2022-10-20T03:44:04.639Z,98565.09
2022-10-20T03:46:05.960Z,98565.91
2022-10-20T03:48:07.244Z,98562.47
2022-10-20T03:50:08.511Z,98568.44
2022-10-20T03:52:09.840Z,98560.72
2022-10-20T03:54:11.135Z,98556.47
2022-10-20T03:56:12.395Z,98560.72
2022-10-20T03:58:13.719Z,98561.63
2022-10-20T04:00:15.019Z,98431.94
2022-10-20T04:02:16.337Z,98566.78
2022-10-20T04:04:17.714Z,98566.81
2022-10-20T04:06:19.015Z,98560.88
2022-10-20T04:08:20.348Z,98553.31
2022-10-20T04:10:21.615Z,98426.00
2022-10-20T04:12:22.895Z,98555.09
2022-10-20T04:14:24.226Z,98565.38
2022-10-20T04:16:25.517Z,98554.34
2022-10-20T04:18:26.785Z,98552.72
2022-10-20T04:20:28.103Z,98550.22
2022-10-20T04:22:29.402Z,98562.19
2022-10-20T04:24:30.654Z,98551.16
2022-10-20T04:26:31.991Z,98546.13
2022-10-20T04:28:33.279Z,98549.59
2022-10-20T04:30:34.563Z,98542.75
2022-10-20T04:32:35.878Z,98552.19
2022-10-20T04:34:37.149Z,98545.44
2022-10-20T04:36:38.436Z,98544.56
2022-10-20T04:38:39.756Z,98541.19
2022-10-20T04:40:41.075Z,98541.19
2022-10-20T04:42:42.382Z,98538.63
2022-10-20T04:44:43.699Z,98536.13
2022-10-20T04:46:44.974Z,98533.56
2022-10-20T04:48:46.271Z,98544.69
2022-10-20T04:50:47.610Z,98537.84
2022-10-20T04:52:48.994Z,98538.72
2022-10-20T04:54:50.276Z,98488.00
2022-10-20T04:56:51.794Z,98537.78
2022-10-20T04:58:53.068Z,98540.28
2022-10-20T05:00:54.342Z,98535.94
2022-10-20T05:02:56.872Z,98535.00
2022-10-20T05:04:58.247Z,98530.69
2022-10-20T05:06:59.553Z,98532.28
2022-10-20T05:09:00.873Z,98535.59
2022-10-20T05:11:02.279Z,98522.75
2022-10-20T05:13:03.574Z,98521.81
2022-10-20T05:15:04.850Z,98519.22
2022-10-20T05:17:09.227Z,98518.31
2022-10-20T05:19:11.403Z,98515.66
2022-10-20T05:21:12.663Z,98524.16
2022-10-20T05:23:13.922Z,98516.41
2022-10-20T05:27:36.538Z,98518.91
2022-10-20T05:29:37.814Z,98522.41
2022-10-20T05:31:39.265Z,98522.41
2022-10-20T05:33:40.591Z,98518.19
2022-10-20T05:35:41.898Z,98519.06
2022-10-20T05:37:43.838Z,98514.84
2022-10-20T05:39:45.850Z,98514.91
2022-10-20T05:41:47.173Z,98509.03
2022-10-20T05:43:48.807Z,98509.94
2022-10-20T05:45:50.119Z,98503.09
2022-10-20T05:47:51.386Z,98413.09
2022-10-20T05:49:53.075Z,98502.31
2022-10-20T05:51:54.376Z,98496.44
2022-10-20T05:53:55.665Z,98506.69
2022-10-20T05:55:56.979Z,98512.72
2022-10-20T05:57:58.234Z,98507.66
2022-10-20T05:59:59.564Z,98509.44
2022-10-20T06:02:00.859Z,98512.81
2022-10-20T06:04:02.143Z,98512.91
2022-10-20T06:06:03.471Z,98514.66
2022-10-20T06:08:04.775Z,98510.38
2022-10-20T06:10:06.113Z,98518.94
2022-10-20T06:14:09.627Z,98518.19
2022-10-20T06:16:10.899Z,98510.56
2022-10-20T06:18:12.235Z,98517.38
2022-10-20T06:20:13.534Z,98516.56
2022-10-20T06:22:15.019Z,98526.78
2022-10-20T06:24:17.010Z,98519.13
2022-10-20T06:26:18.515Z,98512.28
2022-10-20T06:28:19.818Z,98507.16
2022-10-20T06:30:21.267Z,98515.59
2022-10-20T06:32:22.545Z,98521.50
2022-10-20T06:34:23.905Z,98524.88
2022-10-20T06:36:25.249Z,98526.56
2022-10-20T06:38:26.554Z,98524.78
2022-10-20T06:40:27.875Z,98532.38
2022-10-20T06:42:29.156Z,98529.72
2022-10-20T06:44:30.447Z,98520.22
2022-10-20T06:46:31.782Z,98517.66
2022-10-20T06:48:33.086Z,98519.34
2022-10-20T06:50:34.419Z,98521.84
2022-10-20T06:52:35.937Z,98513.28
2022-10-20T06:54:37.375Z,98521.81
2022-10-20T06:56:38.694Z,98521.75
2022-10-20T06:58:40.002Z,98516.56
2022-10-20T07:00:41.339Z,98524.22
2022-10-20T07:02:42.639Z,98519.09
2022-10-20T07:04:43.962Z,98526.63
2022-10-20T07:06:45.271Z,98524.31
2022-10-20T07:08:46.575Z,98525.56
2022-10-20T07:10:47.938Z,98533.50
2022-10-20T07:12:49.201Z,98537.88
2022-10-20T07:14:50.519Z,98538.03
2022-10-20T07:16:51.938Z,98543.06
2022-10-20T07:18:53.294Z,98542.44
2022-10-20T07:20:54.606Z,98543.44
2022-10-20T07:22:57.183Z,98546.34
2022-10-20T07:24:59.511Z,98543.41
2022-10-20T07:27:00.810Z,98538.91
2022-10-20T07:29:03.009Z,98534.38
2022-10-20T07:31:04.395Z,98535.00
2022-10-20T07:33:05.688Z,98543.34
2022-10-20T07:35:07.118Z,98532.94
2022-10-20T07:37:08.387Z,98546.34
2022-10-20T07:39:09.715Z,98540.31
2022-10-20T07:41:11.047Z,98539.38
2022-10-20T07:43:12.326Z,98542.69
2022-10-20T07:45:13.644Z,98551.00
2022-10-20T07:47:14.961Z,98544.88
2022-10-20T07:49:42.760Z,98541.28
2022-10-20T07:51:37.544Z,98537.63
2022-10-20T07:53:38.828Z,98533.38
2022-10-20T07:55:40.125Z,98540.53
2022-10-20T07:57:41.427Z,98539.91
2022-10-20T07:59:42.723Z,98535.81
2022-10-20T08:01:44.467Z,98529.03
2022-10-20T08:03:46.069Z,98534.06
2022-10-20T08:05:47.335Z,98527.97
2022-10-20T08:07:48.674Z,98528.75
2022-10-20T08:09:49.949Z,98527.03
2022-10-20T08:11:54.563Z,98527.88
2022-10-20T08:13:57.256Z,98528.78
2022-10-20T08:15:58.589Z,98530.59
2022-10-20T08:17:59.939Z,98520.44
2022-10-20T08:20:05.097Z,98523.06
2022-10-20T08:22:06.427Z,98529.09
2022-10-20T08:24:07.723Z,98522.34
2022-10-20T08:26:11.371Z,98531.75
2022-10-20T08:28:12.954Z,98524.97
2022-10-20T08:30:29.439Z,98517.34
2022-10-20T08:32:30.799Z,98518.22
2022-10-20T08:34:32.123Z,98511.44
2022-10-20T08:36:33.416Z,98514.03
2022-10-20T08:38:34.692Z,98510.63
2022-10-20T08:40:35.977Z,98512.34
2022-10-20T08:42:37.328Z,98506.41
2022-10-20T08:44:38.597Z,98506.41
2022-10-20T08:46:39.879Z,98503.81
2022-10-20T08:48:41.162Z,98509.78
2022-10-20T08:50:42.501Z,98507.22
2022-10-20T08:52:43.774Z,98503.75
2022-10-20T08:54:45.055Z,98506.34
2022-10-20T08:56:46.494Z,98500.31
2022-10-20T08:58:47.856Z,98491.84
2022-10-20T09:00:49.135Z,98490.13
2022-10-20T09:02:50.395Z,98485.06
2022-10-20T09:04:51.674Z,98481.25
2022-10-20T09:06:52.994Z,98487.06
2022-10-20T09:08:54.377Z,98480.56
2022-10-20T09:10:56.342Z,98491.28
2022-10-20T09:13:00.486Z,98486.03
2022-10-20T09:15:01.861Z,98470.44
2022-10-20T09:17:03.129Z,98483.19
2022-10-20T09:19:04.414Z,98468.72
2022-10-20T09:21:05.691Z,98474.50
2022-10-20T09:23:16.534Z,98367.31
2022-10-20T09:25:24.076Z,98460.81
2022-10-20T09:27:25.714Z,98472.38
2022-10-20T09:29:27.071Z,98465.66
2022-10-20T09:31:28.531Z,98466.22
2022-10-20T09:33:29.886Z,98456.16
2022-10-20T09:35:31.190Z,98459.06
2022-10-20T09:37:32.495Z,98459.09
2022-10-20T09:39:33.775Z,98450.41
2022-10-20T09:41:36.044Z,98453.03
2022-10-20T09:43:37.318Z,98450.94
2022-10-20T09:45:38.986Z,98449.56
2022-10-20T09:47:40.267Z,98446.78
2022-10-20T09:49:41.582Z,98445.69
2022-10-20T09:51:42.890Z,98438.56
2022-10-20T09:53:44.244Z,98441.78
2022-10-20T09:55:45.555Z,98440.59
2022-10-20T09:57:46.865Z,98429.78
2022-10-20T09:59:48.266Z,98442.13
2022-10-20T10:01:49.543Z,98430.78
2022-10-20T10:03:51.791Z,98433.66
2022-10-20T10:05:53.122Z,98431.22
2022-10-20T10:07:54.410Z,98432.34
2022-10-20T10:09:55.717Z,98427.84
2022-10-20T10:11:56.987Z,98423.59
2022-10-20T10:13:58.253Z,98416.53
2022-10-20T10:15:59.590Z,98416.03
2022-10-20T10:18:00.930Z,98416.09
2022-10-20T10:20:02.190Z,98413.88
2022-10-20T10:22:03.533Z,98409.59
2022-10-20T10:24:04.844Z,98420.41
2022-10-20T10:26:06.181Z,98408.72
2022-10-20T10:28:09.009Z,98405.28
2022-10-20T10:30:10.294Z,98411.19
2022-10-20T10:32:11.566Z,98405.13
2022-10-20T10:34:12.859Z,98404.19
2022-10-20T10:36:14.203Z,98404.00
2022-10-20T10:38:15.521Z,98401.41
2022-10-20T10:40:16.839Z,98401.41
2022-10-20T10:42:18.118Z,98401.31
2022-10-20T10:44:19.398Z,98394.41
2022-10-20T10:46:20.716Z,98400.31
2022-10-20T10:48:24.815Z,98398.50
2022-10-20T10:50:26.254Z,98396.00
2022-10-20T10:52:27.523Z,98385.78
2022-10-20T10:54:28.797Z,98380.69
2022-10-20T10:56:30.271Z,98390.06
2022-10-20T10:58:31.551Z,98384.13
2022-10-20T11:00:32.864Z,98369.97
2022-10-20T11:02:34.414Z,98366.25
2022-10-20T11:04:35.928Z,98379.34
2022-10-20T11:06:37.211Z,98377.50
2022-10-20T11:08:38.499Z,98371.50
2022-10-20T11:10:40.697Z,98371.00
2022-10-20T11:12:42.039Z,98356.72
2022-10-20T11:14:43.303Z,98356.00
2022-10-20T11:16:44.586Z,98348.38
2022-10-20T11:18:45.870Z,98352.72
2022-10-20T11:20:47.165Z,98353.56
2022-10-20T11:22:48.469Z,98351.06
2022-10-20T11:24:50.083Z,98337.34
2022-10-20T11:26:53.444Z,98345.97
2022-10-20T11:28:54.882Z,98338.31
2022-10-20T11:30:56.166Z,98328.94
2022-10-20T11:33:00.251Z,98337.56
2022-10-20T11:35:01.637Z,98327.38
2022-10-20T11:37:02.905Z,98329.06
2022-10-20T11:39:06.642Z,98324.78
2022-10-20T11:41:07.966Z,98323.09
2022-10-20T11:43:11.070Z,98313.69
2022-10-20T11:45:12.582Z,98310.16
2022-10-20T11:47:13.887Z,98302.44
2022-10-20T11:49:15.161Z,98304.16
2022-10-20T11:51:16.449Z,98306.66
2022-10-20T11:53:17.740Z,98304.03
2022-10-20T11:55:19.083Z,98302.31
2022-10-20T11:57:20.351Z,98302.31
2022-10-20T11:59:21.637Z,98299.75
2022-10-20T12:01:22.956Z,98295.41
2022-10-20T12:03:24.448Z,98316.75
2022-10-20T12:05:25.786Z,98292.78
2022-10-20T12:07:27.085Z,98289.34
2022-10-20T12:11:34.623Z,98281.59
2022-10-20T12:13:35.902Z,98278.91
2022-10-20T12:15:37.198Z,98277.94
2022-10-20T12:17:38.854Z,98282.09
2022-10-20T12:19:40.178Z,98284.66
2022-10-20T12:21:41.472Z,98275.16
2022-10-20T12:23:42.751Z,98272.56
2022-10-20T12:25:44.246Z,98271.69
2022-10-20T12:27:45.526Z,98266.59
2022-10-20T12:29:46.822Z,98261.44
2022-10-20T12:31:48.147Z,98264.13
2022-10-20T12:33:49.613Z,98267.69
2022-10-20T12:35:50.907Z,98255.88
2022-10-20T12:37:52.231Z,98258.53
2022-10-20T12:39:53.548Z,98262.03
2022-10-20T12:41:55.329Z,98259.56
2022-10-20T12:43:56.655Z,98261.25
2022-10-20T12:45:58.006Z,98255.25
2022-10-20T12:47:59.278Z,98245.84
2022-10-20T12:50:00.698Z,98252.63
2022-10-20T12:52:02.005Z,98241.50
2022-10-20T12:54:03.458Z,98243.22
2022-10-20T12:56:04.746Z,98243.03
2022-10-20T12:58:06.039Z,98257.78
2022-10-20T13:00:07.800Z,98242.28
2022-10-20T13:02:09.141Z,98249.50
2022-10-20T13:04:10.424Z,98250.25
2022-10-20T13:06:11.699Z,98239.56
2022-10-20T13:08:13.053Z,98227.34
2022-10-20T13:10:14.333Z,98227.25
2022-10-20T13:12:18.498Z,98229.81
2022-10-20T13:14:19.799Z,98228.34
2022-10-20T13:16:21.199Z,98235.19
2022-10-20T13:18:22.866Z,98221.78
2022-10-20T13:20:24.376Z,98234.31
2022-10-20T13:22:25.658Z,98220.41
2022-10-20T13:24:27.345Z,98222.13
2022-10-20T13:26:28.635Z,98216.88
2022-10-20T13:28:29.966Z,98223.06
2022-10-20T13:30:31.247Z,98210.22
2022-10-20T13:32:32.538Z,98205.88
2022-10-20T13:34:33.963Z,98200.03
2022-10-20T13:36:35.274Z,98195.72
2022-10-20T13:38:36.555Z,98191.16
2022-10-20T13:40:37.850Z,98185.22
2022-10-20T13:42:39.367Z,98181.25
2022-10-20T13:44:40.895Z,98183.72
2022-10-20T13:46:42.171Z,98181.16
2022-10-20T13:48:43.446Z,98189.16
2022-10-20T13:50:44.775Z,98182.16
2022-10-20T13:52:46.043Z,98185.44
2022-10-20T13:54:47.462Z,98197.41
2022-10-20T13:56:48.738Z,98194.03
2022-10-20T13:58:50.010Z,98194.97
2022-10-20T14:00:51.398Z,98188.34
2022-10-20T14:02:52.680Z,98194.34
2022-10-20T14:04:53.964Z,98182.44
2022-10-20T14:06:55.287Z,98190.19
2022-10-20T14:08:58.083Z,98190.25
2022-10-20T14:10:59.466Z,98191.13
2022-10-20T14:13:00.791Z,98189.44
2022-10-20T14:15:02.471Z,98192.00
2022-10-20T14:17:03.848Z,98179.25
2022-10-20T14:19:05.297Z,98179.28
2022-10-20T14:21:08.394Z,98178.53
2022-10-20T14:23:09.866Z,98176.00
2022-10-20T14:25:11.201Z,98172.66
2022-10-20T14:27:12.491Z,98166.75
2022-10-20T14:29:14.125Z,98170.22
2022-10-20T14:31:15.406Z,98172.84
2022-10-20T14:33:16.751Z,98172.09
2022-10-20T14:35:18.940Z,98170.41
2022-10-20T14:37:20.341Z,98160.25
2022-10-20T14:39:21.608Z,98152.69
2022-10-20T14:41:26.175Z,98151.88
2022-10-20T14:43:27.493Z,98150.91
2022-10-20T14:45:28.922Z,98162.91
2022-10-20T14:47:30.279Z,98159.50
2022-10-20T14:49:31.562Z,98144.06
2022-10-20T14:51:32.904Z,98143.09
2022-10-20T14:53:34.255Z,98139.59
2022-10-20T14:55:36.967Z,98146.28
2022-10-20T14:57:38.736Z,98144.44
2022-10-20T14:59:40.310Z,98138.41
2022-10-20T15:01:53.920Z,98147.00
2022-10-20T15:03:57.408Z,98150.53
2022-10-20T15:05:58.795Z,98146.34
2022-10-20T15:08:04.724Z,98139.59
2022-10-20T15:10:08.142Z,98137.03
2022-10-20T15:12:09.427Z,98140.44
2022-10-20T15:14:10.710Z,98137.88
2022-10-20T15:16:12.046Z,98136.28
2022-10-20T15:18:13.371Z,98139.16
2022-10-20T15:20:14.660Z,98126.63
2022-10-20T15:22:15.940Z,98136.25
2022-10-20T15:24:17.331Z,98132.13
2022-10-20T15:26:18.604Z,98124.56
2022-10-20T15:28:19.897Z,98127.19
2022-10-20T15:30:21.190Z,98122.91
2022-10-20T15:32:22.482Z,98135.69
2022-10-20T15:34:23.828Z,98121.28
2022-10-20T15:36:28.782Z,98116.97
2022-10-20T15:38:32.787Z,98106.72
2022-10-20T15:40:34.068Z,98099.88
2022-10-20T15:42:35.622Z,98093.94
2022-10-20T15:44:37.122Z,98101.59
2022-10-20T15:46:38.395Z,98088.00
2022-10-20T15:48:39.737Z,98083.72
2022-10-20T15:50:41.034Z,98083.72
2022-10-20T15:52:42.376Z,98088.72
2022-10-20T15:54:49.697Z,98070.78
2022-10-20T15:56:51.124Z,98081.53
2022-10-20T15:58:52.439Z,98086.00
2022-10-20T16:00:53.912Z,98087.81
2022-10-20T16:02:55.313Z,98092.38
2022-10-20T16:04:56.655Z,98081.78
2022-10-20T16:07:02.587Z,98081.28
2022-10-20T16:09:05.120Z,98081.56
2022-10-20T16:11:06.548Z,98081.69
2022-10-20T16:13:07.836Z,98081.97
2022-10-20T16:15:09.155Z,98078.34
2022-10-20T16:17:10.439Z,98084.81
2022-10-20T16:19:11.748Z,98071.91
2022-10-20T16:21:13.080Z,98073.00
2022-10-20T16:23:14.377Z,98069.72
2022-10-20T16:25:15.654Z,98071.41
2022-10-20T16:27:16.976Z,98066.34
2022-10-20T16:29:18.270Z,98068.59
2022-10-20T16:31:19.589Z,98068.78
2022-10-20T16:33:20.865Z,98072.75
2022-10-20T16:35:25.040Z,98065.75
2022-10-20T16:37:27.038Z,98068.72
2022-10-20T16:39:28.312Z,98063.81
2022-10-20T16:41:29.600Z,98065.34
2022-10-20T16:43:30.969Z,98067.72
2022-10-20T16:45:32.254Z,98065.22
2022-10-20T16:47:33.531Z,98057.06
2022-10-20T16:49:34.842Z,98060.22
2022-10-20T16:51:36.283Z,98066.09
2022-10-20T16:53:37.622Z,98058.69
2022-10-20T16:55:38.898Z,98062.09
2022-10-20T16:57:40.477Z,98067.72
2022-10-20T16:59:42.942Z,98058.34
2022-10-20T17:01:44.918Z,98060.88
2022-10-20T17:03:46.208Z,98064.38
2022-10-20T17:05:47.511Z,98063.03
2022-10-20T17:07:52.232Z,97935.63
2022-10-20T17:09:53.566Z,98061.63
2022-10-20T17:11:54.882Z,98062.50
2022-10-20T17:13:56.177Z,98062.69
2022-10-20T17:15:57.446Z,98067.78
2022-10-20T17:17:58.729Z,98065.16
2022-10-20T17:20:00.007Z,98071.03
2022-10-20T17:22:01.378Z,98065.84
2022-10-20T17:24:02.755Z,98065.13
2022-10-20T17:26:04.081Z,97925.59
2022-10-20T17:28:05.378Z,98049.44
2022-10-20T17:30:06.751Z,98041.47
2022-10-20T17:32:08.081Z,98033.69
2022-10-20T17:34:09.362Z,98042.69
2022-10-20T17:36:12.306Z,98044.66
2022-10-20T17:38:13.587Z,98041.84
2022-10-20T17:40:14.964Z,98050.47
2022-10-20T17:42:16.285Z,98048.91
2022-10-20T17:44:17.586Z,98042.28
2022-10-20T17:46:19.599Z,98043.03
2022-10-20T17:48:20.876Z,98037.22
2022-10-20T17:50:22.167Z,98042.75
2022-10-20T17:52:23.436Z,98036.94
2022-10-20T17:54:24.770Z,98034.88
2022-10-20T17:56:29.595Z,98037.13
2022-10-20T17:58:30.953Z,98032.44
2022-10-20T18:00:51.562Z,98032.13
2022-10-20T18:02:56.316Z,98038.72
2022-10-20T18:04:57.625Z,98025.47
2022-10-20T18:06:58.894Z,98018.72
2022-10-20T18:09:00.251Z,98012.66
2022-10-20T18:11:01.596Z,98015.78
2022-10-20T18:13:02.906Z,98011.50
2022-10-20T18:15:04.184Z,98012.28
2022-10-20T18:17:05.515Z,98012.84
2022-10-20T18:19:06.795Z,98006.97
2022-10-20T18:21:10.882Z,98007.38
2022-10-20T18:23:12.162Z,98004.97
2022-10-20T18:25:13.439Z,98006.34
2022-10-20T18:27:14.731Z,98006.97
2022-10-20T18:29:16.051Z,98004.50
2022-10-20T18:31:18.106Z,98003.66
2022-10-20T18:33:19.423Z,98012.34
2022-10-20T18:35:23.099Z,97989.47
2022-10-20T18:37:24.603Z,98004.47
2022-10-20T18:39:25.922Z,97988.44
2022-10-20T18:41:27.226Z,97988.09
2022-10-20T18:43:28.502Z,97977.53
2022-10-20T18:45:32.736Z,97978.75
2022-10-20T18:47:34.281Z,97978.88
2022-10-20T18:49:35.731Z,97977.84
2022-10-20T18:51:37.224Z,97976.00
2022-10-20T18:53:38.494Z,97973.53
2022-10-20T18:55:39.770Z,97975.44
2022-10-20T18:57:41.352Z,97978.97
2022-10-20T18:59:42.675Z,97963.06
2022-10-20T19:01:44.010Z,97960.00
2022-10-20T19:03:45.275Z,97955.72
2022-10-20T19:05:46.575Z,97950.53
2022-10-20T19:07:50.759Z,97955.94
2022-10-20T19:09:54.817Z,97944.84
2022-10-20T19:11:56.947Z,97951.22
2022-10-20T19:13:58.261Z,97961.72
2022-10-20T19:15:59.539Z,97949.97
2022-10-20T19:18:01.752Z,97950.97
2022-10-20T19:20:03.227Z,97944.28
2022-10-20T19:22:05.062Z,97940.13
2022-10-20T19:24:06.385Z,97939.38
2022-10-20T19:26:10.683Z,97950.56
2022-10-20T19:28:12.694Z,97934.94
2022-10-20T19:30:14.012Z,97938.78
2022-10-20T19:32:15.422Z,97931.59
2022-10-20T19:34:16.711Z,97929.03
2022-10-20T19:36:17.985Z,97925.59
2022-10-20T19:38:19.287Z,97916.38
2022-10-20T19:40:20.603Z,97922.19
2022-10-20T19:42:22.794Z,97918.50
2022-10-20T19:44:24.111Z,97921.22
2022-10-20T19:46:25.407Z,97920.56
2022-10-20T19:48:26.737Z,97923.75
2022-10-20T19:50:28.078Z,97924.06
2022-10-20T19:54:30.715Z,97778.25
2022-10-20T19:56:34.993Z,97909.69
2022-10-20T19:58:36.291Z,97919.69
2022-10-20T20:00:37.690Z,97914.56
2022-10-20T20:02:39.418Z,97920.59
2022-10-20T20:04:41.074Z,97915.03
2022-10-20T20:06:42.391Z,97905.59
2022-10-20T20:08:44.651Z,97910.66
2022-10-20T20:10:45.969Z,97910.75
2022-10-20T20:12:47.743Z,97908.06
2022-10-20T20:14:49.011Z,97914.06
2022-10-20T20:16:50.345Z,97895.94
2022-10-20T20:18:51.666Z,97895.84
2022-10-20T20:20:52.942Z,97895.03
2022-10-20T20:22:54.273Z,97877.59
2022-10-20T20:24:55.577Z,97891.09
2022-10-20T20:26:56.952Z,97888.91
2022-10-20T20:28:58.287Z,97897.25
2022-10-20T20:31:00.038Z,97884.78
2022-10-20T20:33:01.334Z,97881.97
2022-10-20T20:37:03.890Z,97888.09
2022-10-20T20:39:07.123Z,97882.19
2022-10-20T20:41:08.449Z,97883.88
2022-10-20T20:43:09.719Z,97890.91
2022-10-20T20:45:11.059Z,97901.78
2022-10-20T20:47:12.330Z,97915.09
2022-10-20T20:49:14.136Z,97929.69
2022-10-20T20:51:15.441Z,97948.28
2022-10-20T20:53:16.710Z,97931.06
2022-10-20T20:55:17.998Z,97924.53
2022-10-20T20:57:19.322Z,97913.94
2022-10-20T20:59:20.602Z,97918.22
2022-10-20T21:01:21.972Z,97917.19
2022-10-20T21:03:23.324Z,97925.91
2022-10-20T21:05:24.655Z,97917.41
2022-10-20T21:07:25.947Z,97911.66
2022-10-20T21:09:27.254Z,97909.84
2022-10-20T21:11:28.545Z,97923.38
2022-10-20T21:13:29.804Z,97904.00
2022-10-20T21:15:31.140Z,97882.78
2022-10-20T21:17:32.442Z,97885.44
2022-10-20T21:19:33.730Z,97881.94
2022-10-20T21:21:35.008Z,97905.69
2022-10-20T21:23:36.347Z,97896.03
2022-10-20T21:25:37.737Z,97889.31
2022-10-20T21:27:39.006Z,97899.63
2022-10-20T21:29:44.214Z,97877.66
2022-10-20T21:31:47.602Z,97869.91
2022-10-20T21:33:48.879Z,97869.75
2022-10-20T21:35:50.144Z,97864.91
2022-10-20T21:37:51.504Z,97859.03
2022-10-20T21:39:52.758Z,97860.97
2022-10-20T21:41:54.087Z,97870.91
2022-10-20T21:43:55.379Z,97870.22
2022-10-20T21:45:56.694Z,97880.25
2022-10-20T21:47:57.995Z,97878.63
2022-10-20T21:49:59.261Z,97888.50
2022-10-20T21:52:00.570Z,97884.78
2022-10-20T21:54:01.846Z,97882.09
2022-10-20T21:56:03.222Z,97873.94
2022-10-20T21:58:04.553Z,97881.84
2022-10-20T22:00:05.819Z,97892.56
2022-10-20T22:02:13.367Z,97896.97
2022-10-20T22:04:14.674Z,97909.44
2022-10-20T22:06:16.015Z,97846.00
2022-10-20T22:08:17.349Z,97919.13
2022-10-20T22:10:18.654Z,97922.44
2022-10-20T22:12:19.956Z,97930.13
2022-10-20T22:14:21.232Z,97922.34
2022-10-20T22:16:22.537Z,97922.34
2022-10-20T22:18:23.971Z,97917.16
2022-10-20T22:20:25.243Z,97911.25
2022-10-20T22:22:27.706Z,97918.16
2022-10-20T22:24:30.610Z,97906.19
2022-10-20T22:26:31.899Z,97909.53
2022-10-20T22:28:33.218Z,97914.81
2022-10-20T22:30:34.489Z,97910.47
2022-10-20T22:32:35.988Z,97907.41
2022-10-20T22:34:37.581Z,97913.53
2022-10-20T22:36:39.707Z,97910.41
2022-10-20T22:38:41.059Z,97888.59
2022-10-20T22:40:42.359Z,97890.91
2022-10-20T22:42:43.631Z,97889.91
2022-10-20T22:44:45.023Z,97888.00
2022-10-20T22:46:46.305Z,97895.25
2022-10-20T22:48:47.659Z,97895.63
2022-10-20T22:50:48.987Z,97888.03
2022-10-20T22:52:50.915Z,97886.38
2022-10-20T22:54:52.180Z,97897.50
2022-10-20T22:56:53.467Z,97892.44
2022-10-20T22:58:54.790Z,97898.34
2022-10-20T23:00:56.111Z,97898.19
2022-10-20T23:02:57.446Z,97893.75
2022-10-20T23:04:58.715Z,97895.53
2022-10-20T23:09:06.403Z,97897.34
2022-10-20T23:11:07.754Z,97895.63
2022-10-20T23:13:09.020Z,97881.53
2022-10-20T23:15:10.303Z,97896.72
2022-10-20T23:17:11.617Z,97866.94
2022-10-20T23:19:12.909Z,97875.69
2022-10-20T23:21:14.249Z,97880.31
2022-10-20T23:23:15.738Z,97882.78
2022-10-20T23:25:17.065Z,97881.56
2022-10-20T23:27:18.332Z,97874.41
2022-10-20T23:29:19.615Z,97870.69
2022-10-20T23:31:20.911Z,97875.47
2022-10-20T23:33:22.230Z,97884.22
2022-10-20T23:35:23.503Z,97891.69
2022-10-20T23:37:24.770Z,97885.84
2022-10-20T23:39:26.061Z,97883.66
2022-10-20T23:41:27.339Z,97888.88
2022-10-20T23:43:28.690Z,97884.72
2022-10-20T23:45:34.073Z,97882.34
2022-10-20T23:47:38.501Z,97893.31
2022-10-20T23:49:40.012Z,97894.66
2022-10-20T23:51:41.295Z,97887.41
2022-10-20T23:53:42.550Z,97892.00
2022-10-20T23:55:43.939Z,97898.53
2022-10-20T23:57:45.281Z,97889.00
2022-10-20T23:59:46.550Z,97891.19
